createdAt,value
2018-11-27T00:00:58.136Z,101320.64
2018-11-27T00:03:46.305Z,101321.71
2018-11-27T00:06:15.295Z,101325.44
2018-11-27T00:08:44.288Z,101324.59
2018-11-27T00:11:13.312Z,101325.70
2018-11-27T00:13:42.283Z,101322.61
2018-11-27T00:16:11.263Z,101317.86
2018-11-27T00:18:40.687Z,101321.99
2018-11-27T00:21:09.713Z,101326.69
2018-11-27T00:23:38.738Z,101330.35
2018-11-27T00:26:08.627Z,101328.44
2018-11-27T00:28:36.842Z,101324.72
2018-11-27T00:31:06.522Z,101320.56
2018-11-27T00:33:35.566Z,101317.75
2018-11-27T00:36:04.681Z,101326.32
2018-11-27T00:38:33.710Z,101321.91
2018-11-27T00:41:02.692Z,101327.28
2018-11-27T00:43:31.743Z,101324.68
2018-11-27T00:46:00.726Z,101314.89
2018-11-27T00:48:29.727Z,101317.02
2018-11-27T00:50:58.737Z,101319.31
2018-11-27T00:53:27.693Z,101330.64
2018-11-27T00:55:56.750Z,101330.53
2018-11-27T00:58:25.753Z,101324.09
2018-11-27T01:00:54.790Z,101320.00
2018-11-27T01:03:23.846Z,101330.45
2018-11-27T01:05:52.807Z,101330.16
2018-11-27T01:08:21.858Z,101331.78
2018-11-27T01:10:50.869Z,101331.87
2018-11-27T01:13:19.859Z,101331.95
2018-11-27T01:15:48.877Z,101338.82
2018-11-27T01:18:17.870Z,101340.64
2018-11-27T01:20:46.848Z,101339.46
2018-11-27T01:23:15.836Z,101339.47
2018-11-27T01:25:44.917Z,101342.03
2018-11-27T01:28:13.848Z,101336.27
2018-11-27T01:30:42.828Z,101345.59
2018-11-27T01:33:11.807Z,101346.55
2018-11-27T01:35:40.811Z,101342.13
2018-11-27T01:38:09.815Z,101340.31
2018-11-27T01:40:38.829Z,101339.74
2018-11-27T01:43:07.956Z,101340.22
2018-11-27T01:45:36.957Z,101340.39
2018-11-27T01:48:06.271Z,101342.56
2018-11-27T01:50:35.334Z,101341.09
2018-11-27T01:53:04.758Z,101347.94
2018-11-27T01:55:33.753Z,101355.68
2018-11-27T01:58:02.767Z,101355.32
2018-11-27T02:00:31.749Z,101357.05
2018-11-27T02:03:01.484Z,101358.46
2018-11-27T02:05:30.794Z,101356.73
2018-11-27T02:07:59.760Z,101356.08
2018-11-27T02:10:28.798Z,101357.20
2018-11-27T02:13:01.176Z,101354.13
2018-11-27T02:15:30.211Z,101359.22
2018-11-27T02:17:59.284Z,101360.38
2018-11-27T02:20:28.300Z,101360.55
2018-11-27T02:22:59.060Z,101361.28
2018-11-27T02:25:29.132Z,101358.64
2018-11-27T02:27:58.166Z,101358.97
2018-11-27T02:30:27.955Z,101365.09
2018-11-27T02:32:56.944Z,101366.53
2018-11-27T02:35:26.694Z,101361.72
2018-11-27T02:37:59.241Z,101365.78
2018-11-27T02:40:28.225Z,101366.73
2018-11-27T02:42:57.231Z,101365.36
2018-11-27T02:45:26.614Z,101360.55
2018-11-27T02:47:55.733Z,101362.67
2018-11-27T02:50:25.740Z,101359.90
2018-11-27T02:52:54.734Z,101360.38
2018-11-27T02:55:24.956Z,101362.59
2018-11-27T02:57:54.049Z,101359.21
2018-11-27T03:00:27.378Z,101362.97
2018-11-27T03:02:56.460Z,101362.20
2018-11-27T03:05:35.688Z,101364.41
2018-11-27T03:08:04.668Z,101359.42
2018-11-27T03:10:33.773Z,101354.31
2018-11-27T03:13:02.784Z,101355.36
2018-11-27T03:15:31.784Z,101360.34
2018-11-27T03:18:00.761Z,101366.59
2018-11-27T03:20:29.800Z,101365.36
2018-11-27T03:22:58.763Z,101366.80
2018-11-27T03:25:27.753Z,101365.23
2018-11-27T03:27:56.800Z,101368.41
2018-11-27T03:30:26.628Z,101368.53
2018-11-27T03:32:55.754Z,101368.53
2018-11-27T03:35:25.431Z,101368.53
2018-11-27T03:38:00.339Z,101369.48
2018-11-27T03:40:29.562Z,101368.05
2018-11-27T03:42:58.517Z,101363.89
2018-11-27T03:45:27.464Z,101367.62
2018-11-27T03:47:56.397Z,101362.45
2018-11-27T03:50:29.629Z,101372.25
2018-11-27T03:52:58.543Z,101369.84
2018-11-27T03:55:27.479Z,101368.41
2018-11-27T03:57:56.353Z,101370.44
2018-11-27T04:00:28.953Z,101366.19
2018-11-27T04:03:15.859Z,101373.77
2018-11-27T04:05:44.761Z,101373.95
2018-11-27T04:08:13.739Z,101379.53
2018-11-27T04:10:42.769Z,101377.89
2018-11-27T04:13:11.852Z,101389.59
2018-11-27T04:15:40.707Z,101389.59
2018-11-27T04:18:09.674Z,101387.90
2018-11-27T04:20:38.657Z,101392.28
2018-11-27T04:23:07.621Z,101389.59
2018-11-27T04:25:36.505Z,101389.90
2018-11-27T04:28:06.215Z,101396.05
2018-11-27T04:30:35.142Z,101397.18
2018-11-27T04:33:04.200Z,101406.02
2018-11-27T04:35:33.136Z,101398.83
2018-11-27T04:38:02.096Z,101400.30
2018-11-27T04:40:31.003Z,101398.27
2018-11-27T04:42:59.955Z,101397.49
2018-11-27T04:45:28.927Z,101393.56
2018-11-27T04:47:57.916Z,101396.84
2018-11-27T04:50:26.868Z,101394.62
2018-11-27T04:52:55.887Z,101407.59
2018-11-27T04:55:24.819Z,101403.26
2018-11-27T04:57:53.757Z,101405.55
2018-11-27T05:00:23.814Z,101406.02
2018-11-27T05:02:52.796Z,101408.71
2018-11-27T05:05:21.780Z,101403.52
2018-11-27T05:07:50.724Z,101408.71
2018-11-27T05:10:20.971Z,101410.23
2018-11-27T05:12:49.901Z,101409.27
2018-11-27T05:15:23.445Z,101409.58
2018-11-27T05:18:02.019Z,101413.42
2018-11-27T05:20:30.955Z,101413.42
2018-11-27T05:22:59.909Z,101414.78
2018-11-27T05:25:28.986Z,101417.55
2018-11-27T05:27:58.264Z,101419.94
2018-11-27T05:30:28.574Z,101423.80
2018-11-27T05:32:57.456Z,101427.26
2018-11-27T05:35:27.628Z,101426.48
2018-11-27T05:37:56.668Z,101430.99
2018-11-27T05:40:26.173Z,101430.53
2018-11-27T05:42:59.660Z,101430.17
2018-11-27T05:45:28.667Z,101429.50
2018-11-27T05:47:57.618Z,101433.73
2018-11-27T05:50:26.549Z,101434.30
2018-11-27T05:52:55.518Z,101436.89
2018-11-27T05:55:24.483Z,101440.70
2018-11-27T05:57:55.058Z,101446.95
2018-11-27T06:00:28.324Z,101447.33
2018-11-27T06:03:01.412Z,101450.97
2018-11-27T06:05:30.380Z,101457.56
2018-11-27T06:07:59.308Z,101456.14
2018-11-27T06:10:28.354Z,101455.97
2018-11-27T06:12:57.281Z,101469.19
2018-11-27T06:15:26.223Z,101462.20
2018-11-27T06:17:59.349Z,101472.64
2018-11-27T06:20:28.306Z,101472.16
2018-11-27T06:22:57.324Z,101477.23
2018-11-27T06:25:27.446Z,101480.39
2018-11-27T06:28:03.826Z,101479.19
2018-11-27T06:30:34.058Z,101486.95
2018-11-27T06:33:02.974Z,101485.69
2018-11-27T06:35:42.383Z,101495.94
2018-11-27T06:38:11.762Z,101496.80
2018-11-27T06:40:41.830Z,101495.73
2018-11-27T06:43:11.887Z,101494.39
2018-11-27T06:45:41.932Z,101496.12
2018-11-27T06:48:10.926Z,101495.94
2018-11-27T06:50:39.929Z,101499.20
2018-11-27T06:53:08.971Z,101507.74
2018-11-27T06:55:37.978Z,101513.42
2018-11-27T06:58:07.716Z,101516.03
2018-11-27T07:00:36.683Z,101521.48
2018-11-27T07:03:08.926Z,101523.05
2018-11-27T07:05:38.113Z,101530.89
2018-11-27T07:08:08.374Z,101529.63
2018-11-27T07:10:38.317Z,101526.78
2018-11-27T07:13:11.400Z,101529.63
2018-11-27T07:15:40.461Z,101521.40
2018-11-27T07:18:09.687Z,101529.30
2018-11-27T07:20:38.642Z,101529.48
2018-11-27T07:23:08.024Z,101532.65
2018-11-27T07:25:37.435Z,101538.86
2018-11-27T07:28:06.683Z,101534.93
2018-11-27T07:30:36.177Z,101535.00
2018-11-27T07:33:05.893Z,101531.06
2018-11-27T07:35:35.501Z,101529.64
2018-11-27T07:38:04.419Z,101527.29
2018-11-27T07:40:33.343Z,101531.77
2018-11-27T07:43:09.725Z,101535.09
2018-11-27T07:45:38.956Z,101537.88
2018-11-27T07:48:08.838Z,101533.59
2018-11-27T07:50:37.757Z,101542.30
2018-11-27T07:53:07.444Z,101539.30
2018-11-27T07:55:36.307Z,101540.17
2018-11-27T07:58:06.427Z,101547.67
2018-11-27T08:00:35.874Z,101547.20
2018-11-27T08:03:05.753Z,101557.30
2018-11-27T08:05:39.167Z,101556.70
2018-11-27T08:08:12.839Z,101551.63
2018-11-27T08:10:42.307Z,101553.14
2018-11-27T08:13:11.368Z,101557.08
2018-11-27T08:15:40.281Z,101563.26
2018-11-27T08:18:10.042Z,101568.14
2018-11-27T08:20:38.966Z,101559.31
2018-11-27T08:23:09.326Z,101560.97
2018-11-27T08:25:38.279Z,101565.30
2018-11-27T08:28:07.728Z,101562.95
2018-11-27T08:30:36.664Z,101564.56
2018-11-27T08:33:06.315Z,101562.41
2018-11-27T08:35:35.147Z,101560.95
2018-11-27T08:38:04.191Z,101565.42
2018-11-27T08:40:33.766Z,101562.13
2018-11-27T08:43:02.721Z,101574.11
2018-11-27T08:45:31.724Z,101564.77
2018-11-27T08:48:00.715Z,101573.02
2018-11-27T08:50:29.592Z,101574.84
2018-11-27T08:53:05.739Z,101570.80
2018-11-27T08:55:38.904Z,101576.92
2018-11-27T08:58:18.465Z,101581.34
2018-11-27T09:00:47.405Z,101582.52
2018-11-27T09:03:16.371Z,101583.00
2018-11-27T09:05:45.391Z,101575.23
2018-11-27T09:08:14.410Z,101576.67
2018-11-27T09:10:43.378Z,101581.57
2018-11-27T09:13:12.636Z,101578.23
2018-11-27T09:15:41.247Z,101577.06
2018-11-27T09:18:23.745Z,101572.37
2018-11-27T09:20:52.646Z,101570.55
2018-11-27T09:23:21.621Z,101571.33
2018-11-27T09:25:50.510Z,101567.59
2018-11-27T09:28:19.412Z,101568.38
2018-11-27T09:30:48.445Z,101570.40
2018-11-27T09:33:17.375Z,101567.41
2018-11-27T09:35:46.280Z,101571.47
2018-11-27T09:38:15.203Z,101568.39
2018-11-27T09:40:44.248Z,101571.07
2018-11-27T09:43:13.211Z,101573.75
2018-11-27T09:45:43.533Z,101580.59
2018-11-27T09:48:12.375Z,101578.69
2018-11-27T09:50:41.295Z,101578.97
2018-11-27T09:53:12.142Z,101573.78
2018-11-27T09:55:40.991Z,101576.45
2018-11-27T09:58:09.861Z,101581.16
2018-11-27T10:00:38.760Z,101581.95
2018-11-27T10:03:09.248Z,101578.20
2018-11-27T10:05:38.243Z,101575.80
2018-11-27T10:08:08.091Z,101576.47
2018-11-27T10:10:36.983Z,101582.40
2018-11-27T10:13:07.111Z,101583.58
2018-11-27T10:15:36.017Z,101584.45
2018-11-27T10:18:04.980Z,101580.50
2018-11-27T10:20:38.371Z,101580.11
2018-11-27T10:23:14.559Z,101581.97
2018-11-27T10:25:43.454Z,101582.45
2018-11-27T10:28:12.394Z,101583.56
2018-11-27T10:30:41.303Z,101586.55
2018-11-27T10:33:11.236Z,101586.18
2018-11-27T10:35:59.677Z,101590.63
2018-11-27T10:38:28.621Z,101591.47
2018-11-27T10:40:57.554Z,101589.70
2018-11-27T10:43:26.471Z,101592.98
2018-11-27T10:45:55.351Z,101589.05
2018-11-27T10:48:24.238Z,101588.77
2018-11-27T10:50:53.205Z,101588.68
2018-11-27T10:53:22.120Z,101594.25
2018-11-27T10:55:51.083Z,101597.02
2018-11-27T10:58:19.997Z,101602.32
2018-11-27T11:01:06.423Z,101597.80
2018-11-27T11:03:35.445Z,101594.72
2018-11-27T11:06:06.024Z,101590.30
2018-11-27T11:08:34.946Z,101589.81
2018-11-27T11:11:03.818Z,101591.16
2018-11-27T11:13:32.734Z,101587.62
2018-11-27T11:16:01.631Z,101584.36
2018-11-27T11:18:30.591Z,101580.88
2018-11-27T11:20:59.523Z,101578.00
2018-11-27T11:23:28.448Z,101577.13
2018-11-27T11:25:57.335Z,101575.31
2018-11-27T11:28:28.130Z,101575.79
2018-11-27T11:30:57.078Z,101566.75
2018-11-27T11:33:26.026Z,101567.82
2018-11-27T11:35:54.918Z,101561.83
2018-11-27T11:38:23.863Z,101555.82
2018-11-27T11:40:52.782Z,101561.25
2018-11-27T11:43:21.718Z,101558.87
2018-11-27T11:45:50.641Z,101554.16
2018-11-27T11:48:19.583Z,101548.95
2018-11-27T11:50:48.497Z,101549.23
2018-11-27T11:53:18.541Z,101561.27
2018-11-27T11:55:48.143Z,101566.44
2018-11-27T11:58:17.447Z,101562.97
2018-11-27T12:00:51.342Z,101566.82
2018-11-27T12:03:20.244Z,101571.70
2018-11-27T12:05:49.164Z,101576.23
2018-11-27T12:08:18.057Z,101576.90
2018-11-27T12:10:47.029Z,101575.27
2018-11-27T12:13:15.999Z,101575.41
2018-11-27T12:15:44.912Z,101586.56
2018-11-27T12:18:13.799Z,101587.13
2018-11-27T12:20:42.701Z,101588.19
2018-11-27T12:23:12.279Z,101594.19
2018-11-27T12:25:41.381Z,101601.36
2018-11-27T12:28:14.715Z,101590.80
2018-11-27T12:30:39.759Z,101597.84
2018-11-27T12:33:08.685Z,101606.00
2018-11-27T12:35:37.614Z,101599.34
2018-11-27T12:38:06.512Z,101602.42
2018-11-27T12:40:35.482Z,101607.77
2018-11-27T12:43:04.409Z,101608.89
2018-11-27T12:45:33.796Z,101608.31
2018-11-27T12:48:03.463Z,101604.30
2018-11-27T12:50:51.807Z,101601.90
2018-11-27T12:53:20.763Z,101590.72
2018-11-27T12:55:50.487Z,101591.54
2018-11-27T12:58:19.441Z,101587.84
2018-11-27T13:00:48.377Z,101586.39
2018-11-27T13:03:17.292Z,101576.72
2018-11-27T13:05:46.803Z,101578.77
2018-11-27T13:08:22.633Z,101578.67
2018-11-27T13:10:51.657Z,101583.95
2018-11-27T13:13:20.567Z,101586.33
2018-11-27T13:15:49.444Z,101585.31
2018-11-27T13:18:18.584Z,101587.24
2018-11-27T13:20:47.436Z,101588.41
2018-11-27T13:23:16.343Z,101596.84
2018-11-27T13:25:45.223Z,101595.63
2018-11-27T13:28:14.675Z,101596.98
2018-11-27T13:31:03.485Z,101594.91
2018-11-27T13:34:06.120Z,101599.53
2018-11-27T13:36:35.114Z,101601.88
2018-11-27T13:39:31.184Z,101600.28
2018-11-27T13:42:00.143Z,101604.16
2018-11-27T13:44:29.105Z,101601.85
2018-11-27T13:46:58.041Z,101595.98
2018-11-27T13:49:27.818Z,101601.27
2018-11-27T13:51:55.893Z,101602.23
2018-11-27T13:54:24.817Z,101598.32
2018-11-27T13:56:53.769Z,101602.36
2018-11-27T13:59:22.706Z,101599.28
2018-11-27T14:01:51.654Z,101608.85
2018-11-27T14:04:20.596Z,101611.89
2018-11-27T14:06:49.523Z,101605.19
2018-11-27T14:09:18.512Z,101610.59
2018-11-27T14:11:47.389Z,101615.10
2018-11-27T14:14:16.333Z,101618.09
2018-11-27T14:16:45.234Z,101618.88
2018-11-27T14:19:14.141Z,101620.33
2018-11-27T14:21:43.063Z,101631.29
2018-11-27T14:24:12.006Z,101631.29
2018-11-27T14:26:40.911Z,101635.12
2018-11-27T14:29:09.823Z,101626.11
2018-11-27T14:31:38.717Z,101621.45
2018-11-27T14:34:07.641Z,101629.46
2018-11-27T14:36:36.524Z,101624.45
2018-11-27T14:39:09.244Z,101625.02
2018-11-27T14:41:38.159Z,101619.14
2018-11-27T14:44:07.115Z,101610.88
2018-11-27T14:46:36.031Z,101610.80
2018-11-27T14:49:05.087Z,101618.19
2018-11-27T14:51:34.046Z,101619.55
2018-11-27T14:54:03.013Z,101622.10
2018-11-27T14:56:31.895Z,101620.70
2018-11-27T14:59:00.872Z,101624.92
2018-11-27T15:01:29.816Z,101621.38
2018-11-27T15:03:58.708Z,101618.77
2018-11-27T15:06:27.684Z,101616.75
2018-11-27T15:08:56.573Z,101614.34
2018-11-27T15:11:25.503Z,101619.94
2018-11-27T15:13:54.432Z,101610.41
2018-11-27T15:16:23.334Z,101612.92
2018-11-27T15:18:52.240Z,101608.41
2018-11-27T15:21:21.172Z,101604.93
2018-11-27T15:23:50.088Z,101605.62
2018-11-27T15:26:19.033Z,101600.50
2018-11-27T15:28:48.022Z,101604.36
2018-11-27T15:31:17.005Z,101603.69
2018-11-27T15:33:45.912Z,101595.91
2018-11-27T15:36:14.787Z,101603.13
2018-11-27T15:38:43.795Z,101594.17
2018-11-27T15:41:12.675Z,101586.56
2018-11-27T15:43:41.619Z,101591.66
2018-11-27T15:46:10.575Z,101606.95
2018-11-27T15:48:39.450Z,101609.45
2018-11-27T15:51:08.373Z,101611.77
2018-11-27T15:53:37.309Z,101614.66
2018-11-27T15:56:06.235Z,101615.61
2018-11-27T15:58:35.200Z,101624.17
2018-11-27T16:01:04.118Z,101627.53
2018-11-27T16:03:33.139Z,101632.14
2018-11-27T16:06:02.075Z,101631.58
2018-11-27T16:08:30.969Z,101625.44
2018-11-27T16:10:59.897Z,101624.65
2018-11-27T16:13:28.853Z,101631.21
2018-11-27T16:15:57.786Z,101628.70
2018-11-27T16:18:26.730Z,101632.73
2018-11-27T16:20:57.563Z,101622.06
2018-11-27T16:23:26.481Z,101621.19
2018-11-27T16:25:55.443Z,101615.80
2018-11-27T16:28:24.363Z,101610.33
2018-11-27T16:30:53.300Z,101606.49
2018-11-27T16:33:22.233Z,101601.10
2018-11-27T16:35:51.116Z,101604.55
2018-11-27T16:38:20.079Z,101610.22
2018-11-27T16:40:49.103Z,101609.75
2018-11-27T16:43:18.028Z,101608.20
2018-11-27T16:45:46.920Z,101616.59
2018-11-27T16:48:15.876Z,101613.20
2018-11-27T16:50:44.779Z,101611.20
2018-11-27T16:53:13.692Z,101614.17
2018-11-27T16:55:42.581Z,101616.47
2018-11-27T16:58:11.525Z,101615.12
2018-11-27T17:00:40.481Z,101613.36
2018-11-27T17:03:09.629Z,101610.66
2018-11-27T17:05:45.395Z,101612.31
2018-11-27T17:08:14.551Z,101610.48
2018-11-27T17:10:44.596Z,101616.56
2018-11-27T17:13:14.711Z,101615.39
2018-11-27T17:15:43.625Z,101617.70
2018-11-27T17:18:13.034Z,101623.98
2018-11-27T17:20:43.437Z,101618.95
2018-11-27T17:23:16.655Z,101619.38
2018-11-27T17:25:45.559Z,101613.48
2018-11-27T17:28:18.854Z,101609.58
2018-11-27T17:31:11.116Z,101616.59
2018-11-27T17:34:00.825Z,101618.66
2018-11-27T17:36:29.709Z,101626.19
2018-11-27T17:38:58.950Z,101616.67
2018-11-27T17:41:28.108Z,101625.57
2018-11-27T17:43:57.241Z,101624.62
2018-11-27T17:46:26.158Z,101617.00
2018-11-27T17:48:55.112Z,101619.27
2018-11-27T17:51:24.032Z,101619.44
2018-11-27T17:53:52.946Z,101621.70
2018-11-27T17:56:21.881Z,101615.85
2018-11-27T17:58:50.782Z,101615.18
2018-11-27T18:01:19.673Z,101605.63
2018-11-27T18:03:48.598Z,101605.28
2018-11-27T18:06:17.477Z,101601.77
2018-11-27T18:08:46.367Z,101606.36
2018-11-27T18:11:15.264Z,101612.84
2018-11-27T18:13:44.146Z,101610.03
2018-11-27T18:16:13.071Z,101611.53
2018-11-27T18:18:42.002Z,101608.53
2018-11-27T18:21:10.889Z,101619.81
2018-11-27T18:23:39.805Z,101621.39
2018-11-27T18:26:08.832Z,101616.34
2018-11-27T18:28:37.660Z,101617.20
2018-11-27T18:31:07.225Z,101618.97
2018-11-27T18:33:36.128Z,101621.10
2018-11-27T18:36:05.093Z,101619.97
2018-11-27T18:38:33.991Z,101620.91
2018-11-27T18:41:02.940Z,101630.20
2018-11-27T18:43:31.872Z,101634.77
2018-11-27T18:46:00.792Z,101634.06
2018-11-27T18:48:29.676Z,101627.59
2018-11-27T18:50:58.583Z,101623.56
2018-11-27T18:53:27.498Z,101628.95
2018-11-27T18:55:56.410Z,101626.74
2018-11-27T18:58:25.347Z,101625.40
2018-11-27T19:00:54.259Z,101626.81
2018-11-27T19:03:23.199Z,101634.87
2018-11-27T19:05:52.092Z,101640.09
2018-11-27T19:08:21.007Z,101644.02
2018-11-27T19:10:49.899Z,101636.38
2018-11-27T19:13:18.803Z,101638.03
2018-11-27T19:15:49.516Z,101631.66
2018-11-27T19:18:21.739Z,101637.78
2018-11-27T19:20:54.702Z,101632.99
2018-11-27T19:23:25.828Z,101632.12
2018-11-27T19:25:55.608Z,101632.06
2018-11-27T19:28:24.465Z,101625.66
2018-11-27T19:30:53.380Z,101615.00
2018-11-27T19:33:22.272Z,101622.33
2018-11-27T19:35:51.178Z,101615.34
2018-11-27T19:38:20.556Z,101629.91
2018-11-27T19:40:49.481Z,101629.83
2018-11-27T19:43:18.361Z,101628.89
2018-11-27T19:45:47.297Z,101627.01
2018-11-27T19:48:16.722Z,101625.74
2018-11-27T19:50:45.634Z,101621.55
2018-11-27T19:53:15.441Z,101627.70
2018-11-27T19:55:44.362Z,101612.25
2018-11-27T19:58:13.271Z,101615.02
2018-11-27T20:00:42.177Z,101624.00
2018-11-27T20:03:12.114Z,101625.81
2018-11-27T20:05:41.128Z,101611.16
2018-11-27T20:08:15.288Z,101617.91
2018-11-27T20:10:44.207Z,101626.36
2018-11-27T20:13:13.222Z,101619.83
2018-11-27T20:15:42.223Z,101622.34
2018-11-27T20:18:11.150Z,101631.03
2018-11-27T20:20:40.053Z,101636.13
2018-11-27T20:23:08.941Z,101626.10
2018-11-27T20:25:37.843Z,101623.05
2018-11-27T20:28:08.162Z,101628.17
2018-11-27T20:30:38.435Z,101626.28
2018-11-27T20:33:07.403Z,101629.45
2018-11-27T20:35:36.360Z,101627.06
2018-11-27T20:38:09.920Z,101624.70
2018-11-27T20:40:39.513Z,101619.67
2018-11-27T20:43:08.450Z,101613.19
2018-11-27T20:45:37.613Z,101618.48
2018-11-27T20:48:14.210Z,101611.60
2018-11-27T20:50:43.187Z,101607.77
2018-11-27T20:53:12.081Z,101620.70
2018-11-27T20:55:41.031Z,101618.56
2018-11-27T20:58:10.096Z,101603.09
2018-11-27T21:00:40.305Z,101602.63
2018-11-27T21:03:09.920Z,101597.42
2018-11-27T21:05:38.912Z,101602.63
2018-11-27T21:08:08.159Z,101602.41
2018-11-27T21:10:37.586Z,101601.20
2018-11-27T21:13:07.667Z,101611.14
2018-11-27T21:15:37.353Z,101607.19
2018-11-27T21:18:07.104Z,101608.06
2018-11-27T21:20:36.016Z,101604.69
2018-11-27T21:23:04.938Z,101609.18
2018-11-27T21:25:33.843Z,101613.20
2018-11-27T21:28:20.435Z,101603.24
2018-11-27T21:30:52.339Z,101599.55
2018-11-27T21:33:21.279Z,101610.88
2018-11-27T21:35:50.157Z,101611.86
2018-11-27T21:38:19.103Z,101609.72
2018-11-27T21:40:47.989Z,101616.97
2018-11-27T21:43:18.832Z,101617.05
2018-11-27T21:45:49.365Z,101609.87
2018-11-27T21:48:19.565Z,101615.01
2018-11-27T21:50:48.395Z,101607.98
2018-11-27T21:53:17.310Z,101601.21
2018-11-27T21:55:46.207Z,101597.66
2018-11-27T21:58:15.140Z,101593.23
2018-11-27T22:00:44.034Z,101593.31
2018-11-27T22:03:13.023Z,101585.52
2018-11-27T22:05:41.941Z,101591.48
2018-11-27T22:08:10.863Z,101582.75
2018-11-27T22:10:39.760Z,101586.15
2018-11-27T22:13:13.330Z,101592.59
2018-11-27T22:15:43.556Z,101595.75
2018-11-27T22:18:13.439Z,101600.81
2018-11-27T22:20:42.347Z,101605.78
2018-11-27T22:23:11.246Z,101602.77
2018-11-27T22:25:40.168Z,101605.59
2018-11-27T22:28:09.395Z,101605.37
2018-11-27T22:30:38.303Z,101605.53
2018-11-27T22:33:08.233Z,101604.04
2018-11-27T22:35:37.464Z,101604.05
2018-11-27T22:38:07.286Z,101594.33
2018-11-27T22:40:36.202Z,101599.15
2018-11-27T22:43:06.394Z,101593.63
2018-11-27T22:45:44.624Z,101597.56
2018-11-27T22:48:13.541Z,101599.08
2018-11-27T22:50:42.446Z,101604.42
2018-11-27T22:53:11.390Z,101601.23
2018-11-27T22:55:40.277Z,101593.59
2018-11-27T22:58:09.205Z,101594.67
2018-11-27T23:00:50.069Z,101587.83
2018-11-27T23:03:19.405Z,101584.99
2018-11-27T23:05:48.296Z,101583.80
2018-11-27T23:08:17.200Z,101578.52
2018-11-27T23:10:47.136Z,101575.36
2018-11-27T23:13:16.059Z,101581.14
2018-11-27T23:15:45.144Z,101573.34
2018-11-27T23:18:14.065Z,101580.99
2018-11-27T23:20:42.995Z,101570.22
2018-11-27T23:23:11.879Z,101570.77
2018-11-27T23:25:40.783Z,101570.98
2018-11-27T23:28:09.700Z,101571.56
2018-11-27T23:30:38.603Z,101568.14
2018-11-27T23:33:07.555Z,101572.48
2018-11-27T23:35:36.482Z,101574.53
2018-11-27T23:38:05.379Z,101561.49
2018-11-27T23:40:34.375Z,101559.78
2018-11-27T23:43:03.869Z,101559.61
2018-11-27T23:45:32.113Z,101550.94
2018-11-27T23:48:01.004Z,101546.16
2018-11-27T23:50:29.930Z,101535.83
2018-11-27T23:52:58.963Z,101546.27
2018-11-27T23:55:27.884Z,101537.68
2018-11-27T23:57:56.788Z,101530.84
